Time;durP1;ratioP1;P1;durP2;ratioP2;P2;SDS_P1;SDS_P2;PMS_P1;PMS_P2;Temp;Humidity;BMP_temperature;BMP_pressure;BME280_temperature;BME280_humidity;BME280_pressure;Samples;Min_cycle;Max_cycle;Signal;HPM_P1;HPM_P2
2021/12/11 00:00:23;;;;;;;67.83;53.47;;;-1.70;99.90;;;;;;5065383;28;20357;-73
2021/12/11 00:03:13;;;;;;;66.70;53.63;;;-1.70;99.90;;;;;;5064597;28;20486;-73
2021/12/11 00:05:40;;;;;;;59.73;49.77;;;-1.70;99.90;;;;;;5064028;28;20044;-73
2021/12/11 00:08:08;;;;;;;56.17;47.93;;;-1.70;99.90;;;;;;5044484;28;20048;-73
2021/12/11 00:10:42;;;;;;;46.23;41.20;;;-1.70;99.90;;;;;;5048854;28;20143;-73
2021/12/11 00:13:17;;;;;;;50.63;42.97;;;-1.70;99.90;;;;;;5065827;28;20041;-73
2021/12/11 00:15:47;;;;;;;44.93;38.90;;;-1.70;99.90;;;;;;5065842;28;20439;-74
2021/12/11 00:18:18;;;;;;;45.00;40.23;;;-1.70;99.90;;;;;;5049715;28;20664;-73
2021/12/11 00:20:57;;;;;;;46.67;38.90;;;-1.70;99.90;;;;;;5065770;28;20470;-73
2021/12/11 00:23:35;;;;;;;46.43;41.37;;;-1.70;99.90;;;;;;5066016;28;20102;-74
2021/12/11 00:26:03;;;;;;;45.93;39.33;;;-1.70;99.90;;;;;;5049121;28;20040;-73
2021/12/11 00:28:32;;;;;;;51.63;41.93;;;-1.70;99.90;;;;;;5049531;28;20496;-74
2021/12/11 00:30:59;;;;;;;43.57;36.27;;;-1.70;99.90;;;;;;5048857;28;20044;-73
2021/12/11 00:33:31;;;;;;;49.40;41.17;;;-1.80;99.90;;;;;;5036546;28;20402;-73
2021/12/11 00:35:57;;;;;;;48.83;41.67;;;-1.80;99.90;;;;;;5048547;28;20402;-73
2021/12/11 00:38:34;;;;;;;48.63;40.13;;;-1.80;99.90;;;;;;5065043;28;20060;-71
2021/12/11 00:41:07;;;;;;;50.20;42.17;;;-1.80;99.90;;;;;;5080614;28;20047;-71
2021/12/11 00:43:35;;;;;;;41.83;37.07;;;-1.80;99.90;;;;;;5080454;28;20056;-71
2021/12/11 00:46:05;;;;;;;46.57;37.80;;;-1.80;99.90;;;;;;5064000;28;20075;-71
2021/12/11 00:48:31;;;;;;;59.08;46.60;;;-1.80;99.90;;;;;;5051461;28;20049;-71
2021/12/11 00:51:00;;;;;;;60.00;47.33;;;-1.90;99.90;;;;;;5079181;28;20058;-71
2021/12/11 00:53:36;;;;;;;60.67;48.53;;;-1.90;99.90;;;;;;5069026;28;20087;-71
2021/12/11 00:56:33;;;;;;;54.37;43.30;;;-1.90;99.90;;;;;;5077349;28;20769;-71
2021/12/11 00:59:03;;;;;;;52.87;42.73;;;-1.90;99.90;;;;;;5050583;28;20537;-71
2021/12/11 01:01:43;;;;;;;45.93;37.73;;;-1.90;99.90;;;;;;5073609;28;20522;-71
2021/12/11 01:04:20;;;;;;;43.83;38.33;;;-1.90;99.90;;;;;;5062023;28;20051;-71
2021/12/11 01:06:54;;;;;;;58.57;46.50;;;-1.90;99.90;;;;;;5079728;28;20495;-71
2021/12/11 01:09:27;;;;;;;47.20;39.30;;;-1.90;99.90;;;;;;5068284;28;20491;-71
2021/12/11 01:12:16;;;;;;;47.63;38.57;;;-1.90;99.90;;;;;;5083322;28;20487;-71
2021/12/11 01:14:54;;;;;;;73.13;54.80;;;-1.90;99.90;;;;;;5078112;28;20129;-71
2021/12/11 01:17:39;;;;;;;70.90;52.27;;;-1.90;99.90;;;;;;5079413;28;20139;-71
2021/12/11 01:20:13;;;;;;;63.87;49.80;;;-1.90;99.90;;;;;;5069667;28;20055;-71
2021/12/11 01:22:39;;;;;;;72.23;54.03;;;-1.80;99.90;;;;;;5054177;28;20040;-71
2021/12/11 01:25:17;;;;;;;50.50;42.30;;;-1.90;99.90;;;;;;5068201;28;20439;-71
2021/12/11 01:27:51;;;;;;;47.13;40.90;;;-2.00;99.90;;;;;;5073422;28;20730;-71
2021/12/11 01:30:28;;;;;;;45.77;40.40;;;-2.00;99.90;;;;;;5079586;28;20574;-71
2021/12/11 01:32:55;;;;;;;47.47;40.17;;;-2.00;99.90;;;;;;5058233;28;20047;-71
2021/12/11 01:35:21;;;;;;;45.50;39.50;;;-2.10;99.90;;;;;;5051274;28;20036;-71
2021/12/11 01:37:49;;;;;;;48.47;39.73;;;-2.10;99.90;;;;;;5047134;28;20182;-71
2021/12/11 01:40:18;;;;;;;44.97;39.07;;;-2.10;99.90;;;;;;5052766;28;20053;-71
2021/12/11 01:42:45;;;;;;;45.13;38.97;;;-2.10;99.90;;;;;;5076314;28;20051;-71
2021/12/11 01:45:17;;;;;;;50.77;43.17;;;-2.10;99.90;;;;;;5058483;28;20045;-71
2021/12/11 01:47:46;;;;;;;62.57;48.07;;;-2.10;99.90;;;;;;5076085;28;20085;-71
2021/12/11 01:50:27;;;;;;;48.33;41.03;;;-2.20;99.90;;;;;;5079217;28;20065;-71
2021/12/11 01:53:09;;;;;;;40.63;36.20;;;-2.20;99.90;;;;;;5070413;28;20219;-71
2021/12/11 01:55:40;;;;;;;42.90;36.67;;;-2.20;99.90;;;;;;5054626;28;20044;-71
2021/12/11 01:58:09;;;;;;;46.30;39.30;;;-2.20;99.90;;;;;;5053344;28;20073;-71
2021/12/11 02:00:59;;;;;;;45.10;37.70;;;-2.20;99.90;;;;;;5073409;28;20098;-71
2021/12/11 02:03:29;;;;;;;42.22;35.20;;;-2.20;99.90;;;;;;5082500;28;20142;-71
2021/12/11 02:05:55;;;;;;;43.97;35.95;;;-2.20;99.90;;;;;;5055910;28;20043;-71
2021/12/11 02:08:31;;;;;;;40.07;34.30;;;-2.20;99.90;;;;;;5064195;28;20052;-71
2021/12/11 02:11:06;;;;;;;39.07;33.33;;;-2.20;99.90;;;;;;5057649;28;20044;-71
2021/12/11 02:13:42;;;;;;;39.27;33.93;;;-2.20;99.90;;;;;;5070575;28;20047;-71
2021/12/11 02:16:29;;;;;;;48.13;37.60;;;-2.20;99.90;;;;;;5085182;28;20522;-71
2021/12/11 02:19:02;;;;;;;36.40;32.53;;;-2.30;99.90;;;;;;5060343;28;20110;-71
2021/12/11 02:21:57;;;;;;;41.20;34.97;;;-2.30;99.90;;;;;;5053360;28;20036;-70
2021/12/11 02:24:25;;;;;;;40.13;33.43;;;-2.30;99.90;;;;;;5047053;28;20062;-70
2021/12/11 02:26:57;;;;;;;40.30;34.17;;;-2.30;99.90;;;;;;5081783;28;20123;-70
2021/12/11 02:29:29;;;;;;;41.20;35.07;;;-2.30;99.90;;;;;;5069694;28;20704;-70
2021/12/11 02:31:57;;;;;;;36.37;32.10;;;-2.30;99.90;;;;;;5077035;28;20466;-69
2021/12/11 02:34:41;;;;;;;52.23;41.40;;;-2.20;99.90;;;;;;5052336;28;20048;-70
2021/12/11 02:37:25;;;;;;;48.77;39.30;;;-2.30;99.90;;;;;;5082463;28;20048;-70
2021/12/11 02:40:07;;;;;;;50.67;40.30;;;-2.30;99.90;;;;;;5062445;28;20153;-70
2021/12/11 02:43:13;;;;;;;43.97;35.83;;;-2.30;99.90;;;;;;5068948;28;20616;-70
2021/12/11 02:46:00;;;;;;;35.70;31.03;;;-2.30;99.90;;;;;;5032996;28;20052;-70
2021/12/11 02:48:33;;;;;;;40.03;33.70;;;-2.40;99.90;;;;;;5074899;28;20113;-70
2021/12/11 02:51:20;;;;;;;50.03;39.37;;;-2.40;99.90;;;;;;5074697;28;20048;-70
2021/12/11 02:53:54;;;;;;;50.53;41.23;;;-2.40;99.90;;;;;;5070847;28;20055;-70
2021/12/11 02:56:33;;;;;;;51.00;40.70;;;-2.30;99.90;;;;;;5053341;28;20048;-70
2021/12/11 02:59:08;;;;;;;51.77;42.27;;;-2.40;99.90;;;;;;5073369;28;20054;-70
2021/12/11 03:01:44;;;;;;;46.97;41.50;;;-2.40;99.90;;;;;;5077058;28;20036;-70
2021/12/11 03:04:24;;;;;;;55.23;43.27;;;-2.40;99.90;;;;;;5069983;28;20040;-70
2021/12/11 03:06:56;;;;;;;54.97;43.30;;;-2.40;99.90;;;;;;5088497;28;20495;-70
2021/12/11 03:09:26;;;;;;;53.87;44.70;;;-2.50;99.90;;;;;;5087665;28;20040;-70
2021/12/11 03:11:56;;;;;;;53.95;42.60;;;-2.50;99.90;;;;;;5087549;28;20047;-70
2021/12/11 03:14:24;;;;;;;49.70;39.92;;;-2.50;99.90;;;;;;5086604;28;20044;-70
2021/12/11 03:16:51;;;;;;;37.10;32.80;;;-2.50;99.90;;;;;;5087531;28;20044;-70
2021/12/11 03:19:21;;;;;;;39.80;33.53;;;-2.50;99.90;;;;;;5050514;28;20043;-70
2021/12/11 03:21:48;;;;;;;40.75;34.00;;;-2.60;99.90;;;;;;5067264;28;20052;-70
2021/12/11 03:24:14;;;;;;;42.23;33.93;;;-2.60;99.90;;;;;;5066083;28;20087;-70
2021/12/11 03:26:43;;;;;;;41.60;34.77;;;-2.60;99.90;;;;;;5057456;28;20049;-70
2021/12/11 03:29:10;;;;;;;42.97;35.70;;;-2.60;99.90;;;;;;5066777;28;20482;-70
2021/12/11 03:31:37;;;;;;;37.40;32.57;;;-2.60;99.90;;;;;;5034433;28;20120;-70
2021/12/11 03:34:07;;;;;;;39.03;34.83;;;-2.60;99.90;;;;;;5066399;28;20052;-70
2021/12/11 03:36:34;;;;;;;44.10;36.70;;;-2.60;99.90;;;;;;5050401;28;20131;-70
2021/12/11 03:39:08;;;;;;;41.77;35.87;;;-2.70;99.90;;;;;;5066726;28;20136;-70
2021/12/11 03:41:35;;;;;;;49.60;39.17;;;-2.70;99.90;;;;;;5067004;28;20048;-70
2021/12/11 03:44:01;;;;;;;49.17;40.03;;;-2.70;99.90;;;;;;5067186;28;20052;-70
2021/12/11 03:46:27;;;;;;;47.47;38.50;;;-2.70;99.90;;;;;;5079805;28;20056;-70
2021/12/11 03:48:59;;;;;;;51.53;41.80;;;-2.70;99.90;;;;;;5076488;28;20122;-70
2021/12/11 03:51:33;;;;;;;47.03;38.53;;;-2.70;99.90;;;;;;5059928;28;20083;-70
2021/12/11 03:54:04;;;;;;;47.33;38.53;;;-2.70;99.90;;;;;;5064865;28;20047;-70
2021/12/11 03:56:30;;;;;;;45.60;38.75;;;-2.70;99.90;;;;;;5085917;28;20036;-70
2021/12/11 03:58:56;;;;;;;40.60;33.00;;;-2.60;99.90;;;;;;5041073;28;20094;-70
2021/12/11 04:01:27;;;;;;;33.63;30.03;;;-2.60;99.90;;;;;;5077655;28;20119;-70
2021/12/11 04:04:07;;;;;;;37.03;32.27;;;-2.70;99.90;;;;;;5051998;28;20060;-72
2021/12/11 04:06:33;;;;;;;34.93;31.20;;;-2.60;99.90;;;;;;5076307;28;20538;-72
2021/12/11 04:09:03;;;;;;;37.30;32.60;;;-2.70;99.90;;;;;;5053201;28;20437;-72
2021/12/11 04:11:33;;;;;;;45.00;38.67;;;-2.80;99.90;;;;;;5072143;28;20032;-72
2021/12/11 04:14:06;;;;;;;48.63;40.25;;;-2.80;99.90;;;;;;5048380;28;20432;-72
2021/12/11 04:16:34;;;;;;;52.07;39.30;;;-2.70;99.90;;;;;;5079871;28;20051;-72
2021/12/11 04:19:00;;;;;;;35.77;31.57;;;-2.80;99.90;;;;;;5057322;28;20075;-72
2021/12/11 04:21:26;;;;;;;42.77;34.07;;;-2.70;99.90;;;;;;5060352;28;20115;-72
2021/12/11 04:23:53;;;;;;;41.67;35.70;;;-2.70;99.90;;;;;;5072644;28;20167;-72
2021/12/11 04:26:19;;;;;;;52.53;40.17;;;-2.70;99.90;;;;;;5051230;28;20036;-71
2021/12/11 04:28:46;;;;;;;49.73;39.30;;;-2.70;99.90;;;;;;5051018;28;20074;-72
2021/12/11 04:31:26;;;;;;;45.00;38.83;;;-2.70;99.90;;;;;;5064519;28;20048;-72
2021/12/11 04:33:57;;;;;;;40.10;35.55;;;-2.70;99.90;;;;;;5071328;28;20111;-72
2021/12/11 04:36:31;;;;;;;54.00;39.80;;;-2.80;99.90;;;;;;5080940;28;20044;-72
2021/12/11 04:39:00;;;;;;;60.10;46.90;;;-2.80;99.90;;;;;;5075981;28;20047;-72
2021/12/11 04:41:38;;;;;;;63.05;48.88;;;-2.80;99.90;;;;;;5068272;28;20044;-72
2021/12/11 04:44:15;;;;;;;59.57;45.33;;;-2.80;99.90;;;;;;5078636;28;20086;-71
2021/12/11 04:46:41;;;;;;;78.43;57.53;;;-2.60;99.90;;;;;;5082727;28;20048;-72
2021/12/11 04:54:28;;;;;;;98.73;67.73;;;-2.40;99.90;;;;;;5086056;28;20097;-70
2021/12/11 05:08:36;;;;;;;56.67;43.67;;;-2.20;99.90;;;;;;5070915;28;20045;-70
2021/12/11 05:10:38;;;;;;;54.97;45.40;;;-2.20;99.90;;;;;;5079145;28;20048;-70
2021/12/11 05:13:05;;;;;;;55.50;43.33;;;-2.20;99.90;;;;;;5085446;28;20160;-70
2021/12/11 05:15:35;;;;;;;65.10;49.30;;;-2.20;99.90;;;;;;5067518;28;20526;-70
2021/12/11 05:18:03;;;;;;;69.10;52.60;;;-2.20;99.90;;;;;;5065463;28;20403;-70
2021/12/11 05:20:33;;;;;;;61.93;47.00;;;-2.20;99.90;;;;;;5049040;28;20131;-70
2021/12/11 05:22:59;;;;;;;72.45;54.67;;;-2.20;99.90;;;;;;5064667;28;21118;-70
2021/12/11 05:25:25;;;;;;;70.33;52.23;;;-2.20;99.90;;;;;;5065565;28;20037;-70
2021/12/11 05:27:52;;;;;;;59.53;46.47;;;-2.20;99.90;;;;;;5048653;28;20041;-70
2021/12/11 05:30:28;;;;;;;61.03;48.33;;;-2.20;99.90;;;;;;5048986;28;20045;-71
2021/12/11 05:32:56;;;;;;;69.77;52.07;;;-2.20;99.90;;;;;;5049524;28;20500;-70
2021/12/11 05:35:23;;;;;;;54.40;45.37;;;-2.20;99.90;;;;;;5048874;28;20049;-71
2021/12/11 05:37:49;;;;;;;65.17;47.53;;;-2.20;99.90;;;;;;5065267;28;20059;-71
2021/12/11 05:40:18;;;;;;;67.93;51.00;;;-2.20;99.90;;;;;;5065472;28;20529;-71
2021/12/11 05:42:45;;;;;;;69.27;52.63;;;-2.20;99.90;;;;;;5065571;28;20409;-71
2021/12/11 05:45:11;;;;;;;71.83;52.43;;;-2.20;99.90;;;;;;5065280;28;20049;-71
2021/12/11 05:47:38;;;;;;;72.47;53.93;;;-2.20;99.90;;;;;;5031635;28;20067;-71
2021/12/11 05:50:10;;;;;;;68.27;53.07;;;-2.20;99.90;;;;;;5068124;28;20368;-70
2021/12/11 05:52:36;;;;;;;71.50;52.90;;;-2.20;99.90;;;;;;5068906;28;20044;-71
2021/12/11 05:55:07;;;;;;;60.97;48.57;;;-2.20;99.90;;;;;;5068830;28;20068;-71
2021/12/11 05:57:35;;;;;;;61.03;49.00;;;-2.20;99.90;;;;;;5052516;28;20499;-71
2021/12/11 06:00:07;;;;;;;58.80;48.00;;;-2.30;99.90;;;;;;5067775;28;20039;-71
2021/12/11 06:02:33;;;;;;;64.60;51.40;;;-2.30;99.90;;;;;;5086024;28;20048;-71
2021/12/11 06:05:00;;;;;;;50.80;43.23;;;-2.30;99.90;;;;;;5076265;28;20517;-70
2021/12/11 06:07:31;;;;;;;46.57;39.67;;;-2.40;99.90;;;;;;5052614;28;20052;-70
2021/12/11 06:10:06;;;;;;;48.40;41.67;;;-2.40;99.90;;;;;;5067579;28;20132;-70
2021/12/11 06:12:32;;;;;;;49.63;41.47;;;-2.40;99.90;;;;;;5069161;28;20041;-70
2021/12/11 06:14:58;;;;;;;60.03;48.53;;;-2.40;99.90;;;;;;5051793;28;20051;-70
2021/12/11 06:17:30;;;;;;;53.57;43.47;;;-2.40;99.90;;;;;;5068761;28;20097;-71
2021/12/11 06:19:57;;;;;;;63.83;48.80;;;-2.40;99.90;;;;;;5051623;28;20495;-70
2021/12/11 06:22:31;;;;;;;65.77;50.93;;;-2.50;99.90;;;;;;5052063;28;20590;-70
2021/12/11 06:25:00;;;;;;;60.90;48.53;;;-2.50;99.90;;;;;;5068363;28;20072;-71
2021/12/11 06:27:27;;;;;;;47.00;40.67;;;-2.60;99.90;;;;;;5068585;28;20670;-71
2021/12/11 06:29:53;;;;;;;70.47;52.23;;;-2.60;99.90;;;;;;5068628;28;20052;-70
2021/12/11 06:32:21;;;;;;;58.20;45.70;;;-2.60;99.90;;;;;;5051506;28;20349;-70
2021/12/11 06:34:47;;;;;;;69.90;53.23;;;-2.60;99.90;;;;;;5068431;28;20246;-72
2021/12/11 06:37:15;;;;;;;49.00;40.63;;;-2.60;99.90;;;;;;5035098;28;20147;-72
2021/12/11 06:39:41;;;;;;;50.90;42.17;;;-2.70;99.90;;;;;;5052075;28;20495;-72
2021/12/11 06:42:09;;;;;;;50.07;41.07;;;-2.60;99.90;;;;;;5067447;28;20044;-71
2021/12/11 06:44:36;;;;;;;48.50;40.90;;;-2.60;99.90;;;;;;5064740;28;20046;-71
2021/12/11 06:47:07;;;;;;;63.33;49.07;;;-2.60;99.90;;;;;;5048488;28;20055;-71
2021/12/11 06:49:35;;;;;;;63.53;50.27;;;-2.60;99.90;;;;;;5070718;28;20185;-70
2021/12/11 06:52:05;;;;;;;62.37;49.30;;;-2.60;99.90;;;;;;5056667;28;20051;-70
2021/12/11 06:54:31;;;;;;;68.30;52.58;;;-2.70;99.90;;;;;;5069299;28;20054;-70
2021/12/11 06:56:57;;;;;;;50.90;41.50;;;-2.70;99.90;;;;;;5066767;28;20040;-71
2021/12/11 06:59:23;;;;;;;66.33;50.30;;;-2.70;99.90;;;;;;5076316;28;20138;-70
2021/12/11 07:01:49;;;;;;;45.57;39.53;;;-2.80;99.90;;;;;;5059366;28;20127;-71
2021/12/11 07:04:15;;;;;;;41.57;37.17;;;-2.80;99.90;;;;;;5066239;28;20415;-71
2021/12/11 07:06:45;;;;;;;78.37;48.03;;;-2.80;99.90;;;;;;5072894;28;20075;-70
2021/12/11 07:09:13;;;;;;;62.80;50.63;;;-2.80;99.90;;;;;;5068515;28;20036;-70
2021/12/11 07:11:40;;;;;;;64.60;50.73;;;-2.90;99.90;;;;;;5058842;28;20082;-70
2021/12/11 07:14:07;;;;;;;65.70;51.47;;;-2.80;99.90;;;;;;5066428;28;20052;-70
2021/12/11 07:16:34;;;;;;;46.53;40.20;;;-2.80;99.90;;;;;;5065794;28;20040;-71
2021/12/11 07:19:00;;;;;;;44.83;38.87;;;-2.80;99.90;;;;;;5034908;28;20079;-70
2021/12/11 07:21:25;;;;;;;44.70;38.77;;;-2.80;99.90;;;;;;5072289;28;20426;-70
2021/12/11 07:23:51;;;;;;;50.60;43.27;;;-2.80;99.90;;;;;;5044653;28;20108;-71
2021/12/11 07:26:28;;;;;;;52.10;43.07;;;-2.80;99.90;;;;;;5050915;28;20059;-70
2021/12/11 07:29:02;;;;;;;51.47;42.90;;;-2.80;99.90;;;;;;5056422;28;20068;-71
2021/12/11 07:31:33;;;;;;;45.17;40.10;;;-2.80;99.90;;;;;;5064445;28;20071;-70
2021/12/11 07:33:59;;;;;;;;;;;-2.80;99.90;;;;;;5048694;28;20086;-70
2021/12/11 07:36:26;;;;;;;45.33;38.97;;;-2.80;99.90;;;;;;5068623;28;19927;-71
2021/12/11 07:38:53;;;;;;;49.60;40.67;;;-2.80;99.90;;;;;;5050840;28;20043;-71
2021/12/11 07:41:20;;;;;;;46.90;39.80;;;-2.80;99.90;;;;;;5066945;28;20127;-70
2021/12/11 07:43:48;;;;;;;59.53;47.30;;;-2.80;99.90;;;;;;5058100;28;20044;-70
2021/12/11 07:46:17;;;;;;;49.87;42.63;;;-2.90;99.90;;;;;;5064338;28;20083;-70
2021/12/11 07:48:45;;;;;;;47.15;39.67;;;-2.90;99.90;;;;;;5048478;28;20052;-71
2021/12/11 07:51:12;;;;;;;45.70;40.47;;;-2.90;99.90;;;;;;5054828;28;20514;-70
2021/12/11 07:53:38;;;;;;;46.50;40.03;;;-2.90;99.90;;;;;;5050940;28;20040;-70
2021/12/11 07:56:05;;;;;;;43.77;39.10;;;-2.90;99.90;;;;;;5064430;28;20081;-69
2021/12/11 07:58:33;;;;;;;46.60;40.10;;;-2.90;99.90;;;;;;5053134;28;20513;-69
2021/12/11 08:00:59;;;;;;;46.70;39.40;;;-2.90;99.90;;;;;;5050412;28;20032;-69
2021/12/11 08:03:26;;;;;;;45.30;38.93;;;-2.80;99.90;;;;;;5067145;28;20040;-69
2021/12/11 08:05:53;;;;;;;47.17;41.27;;;-2.80;99.90;;;;;;5052669;28;20058;-69
2021/12/11 08:08:21;;;;;;;50.13;42.13;;;-2.80;99.90;;;;;;5065740;28;20055;-69
2021/12/11 08:10:51;;;;;;;57.80;47.07;;;-2.80;99.90;;;;;;5067842;28;20036;-69
2021/12/11 08:13:17;;;;;;;;;;;-2.70;99.90;;;;;;5066428;28;20513;-70
2021/12/11 08:15:43;;;;;;;61.37;50.33;;;-2.70;99.90;;;;;;5053413;28;19928;-70
2021/12/11 08:18:11;;;;;;;52.10;45.03;;;-2.60;99.90;;;;;;5068468;28;20053;-70
2021/12/11 08:20:39;;;;;;;67.20;51.70;;;-2.60;99.90;;;;;;5078237;28;20040;-70
2021/12/11 08:23:05;;;;;;;57.87;46.73;;;-2.60;99.90;;;;;;5048845;28;20402;-70
2021/12/11 08:25:33;;;;;;;50.90;41.93;;;-2.60;99.90;;;;;;5051125;28;20039;-70
2021/12/11 08:27:59;;;;;;;64.30;51.10;;;-2.60;99.90;;;;;;5066597;28;20039;-70
2021/12/11 08:30:32;;;;;;;77.13;56.70;;;-2.60;99.90;;;;;;5056408;28;20377;-70
2021/12/11 08:32:57;;;;;;;71.93;54.60;;;-2.60;99.90;;;;;;5051530;28;20040;-70
2021/12/11 08:35:23;;;;;;;65.17;50.63;;;-2.60;99.90;;;;;;5050282;28;20095;-70
2021/12/11 08:37:51;;;;;;;53.70;45.57;;;-2.60;99.90;;;;;;5047352;28;20152;-70
2021/12/11 08:40:24;;;;;;;60.83;48.67;;;-2.50;99.90;;;;;;5048324;28;20062;-70
2021/12/11 08:42:50;;;;;;;54.67;45.77;;;-2.50;99.90;;;;;;5057708;28;20502;-70
2021/12/11 08:45:23;;;;;;;51.97;44.60;;;-2.50;99.90;;;;;;5074698;28;20048;-70
2021/12/11 08:47:54;;;;;;;66.27;52.73;;;-2.50;99.90;;;;;;5063388;28;20861;-70
2021/12/11 08:50:24;;;;;;;58.73;49.20;;;-2.40;99.90;;;;;;5081814;28;20100;-69
2021/12/11 08:52:52;;;;;;;71.13;55.80;;;-2.30;99.90;;;;;;5066176;28;20036;-69
2021/12/11 08:55:29;;;;;;;69.63;54.17;;;-2.30;99.90;;;;;;5053776;28;20135;-70
2021/12/11 08:57:56;;;;;;;69.87;56.03;;;-2.30;99.90;;;;;;5070741;28;20577;-70
2021/12/11 09:00:30;;;;;;;93.87;68.23;;;-2.30;99.90;;;;;;5031857;28;20040;-69
2021/12/11 09:03:06;;;;;;;104.37;78.73;;;-2.20;99.90;;;;;;5060836;28;20036;-70
2021/12/11 09:05:45;;;;;;;103.03;80.10;;;-2.10;99.90;;;;;;5072617;28;20640;-70
2021/12/11 09:09:07;;;;;;;91.40;70.37;;;-2.00;99.90;;;;;;5070549;28;20055;-70
2021/12/11 09:12:17;;;;;;;97.77;75.50;;;-1.90;99.90;;;;;;5048452;28;20048;-70
2021/12/11 09:14:43;;;;;;;;;;;-1.80;99.90;;;;;;5003057;28;20051;-69
2021/12/11 09:17:19;;;;;;;113.17;84.93;;;-1.70;99.90;;;;;;5057126;28;19924;-70
2021/12/11 09:20:26;;;;;;;104.37;82.00;;;-1.60;99.90;;;;;;5053842;28;20051;-71
2021/12/11 09:23:25;;;;;;;124.90;93.80;;;-1.50;99.90;;;;;;4995336;28;20060;-71
2021/12/11 09:26:05;;;;;;;117.50;91.30;;;-1.30;99.90;;;;;;5063743;28;20127;-70
2021/12/11 09:28:43;;;;;;;124.50;94.97;;;-1.30;99.90;;;;;;5069074;28;20985;-70
2021/12/11 09:31:32;;;;;;;124.03;93.87;;;-1.10;99.90;;;;;;5054406;28;20052;-71
2021/12/11 09:34:12;;;;;;;122.10;94.43;;;-1.00;99.90;;;;;;5067101;28;20048;-70
2021/12/11 09:36:46;;;;;;;123.82;92.05;;;-0.90;99.90;;;;;;5064596;28;20074;-69
2021/12/11 09:39:29;;;;;;;107.97;83.50;;;-0.80;99.90;;;;;;5052698;28;20102;-69
2021/12/11 09:41:54;;;;;;;137.47;97.27;;;-0.70;99.90;;;;;;5068580;28;20101;-72
2021/12/11 09:44:33;;;;;;;100.43;76.77;;;-0.70;99.90;;;;;;5053839;28;20137;-71
2021/12/11 09:47:08;;;;;;;104.00;81.37;;;-0.70;99.90;;;;;;5060160;28;20449;-71
2021/12/11 09:49:39;;;;;;;111.37;84.20;;;-0.70;99.90;;;;;;5066663;28;20158;-70
2021/12/11 09:52:16;;;;;;;107.70;81.90;;;-0.60;99.90;;;;;;5067042;28;20052;-70
2021/12/11 09:54:50;;;;;;;116.90;91.93;;;-0.60;99.90;;;;;;5065350;28;20044;-71
2021/12/11 09:57:19;;;;;;;132.77;100.73;;;-0.50;99.90;;;;;;5064302;28;20127;-71
2021/12/11 09:59:49;;;;;;;135.47;97.53;;;-0.40;99.90;;;;;;5065665;28;20063;-71
2021/12/11 10:02:23;;;;;;;136.90;102.10;;;-0.20;99.90;;;;;;5067472;28;20094;-70
2021/12/11 10:05:01;;;;;;;130.07;97.00;;;-0.10;99.90;;;;;;5054997;28;20317;-71
2021/12/11 10:07:34;;;;;;;115.47;89.07;;;-0.10;99.90;;;;;;5072962;28;20052;-71
2021/12/11 10:10:22;;;;;;;122.23;91.70;;;0.00;99.90;;;;;;5068303;28;20407;-71
2021/12/11 10:12:55;;;;;;;120.77;92.57;;;0.10;99.90;;;;;;5050289;28;20068;-71
2021/12/11 10:15:31;;;;;;;140.07;99.07;;;0.10;99.90;;;;;;5066734;28;21782;-71
2021/12/11 10:18:08;;;;;;;116.57;83.73;;;0.20;99.90;;;;;;5071119;28;20036;-71
2021/12/11 10:20:42;;;;;;;126.03;92.07;;;0.30;99.90;;;;;;5055008;28;20499;-71
2021/12/11 10:23:11;;;;;;;112.83;84.73;;;0.30;99.90;;;;;;5070143;28;20044;-71
2021/12/11 10:25:42;;;;;;;105.50;82.13;;;0.40;99.90;;;;;;5055302;28;20711;-71
2021/12/11 10:28:13;;;;;;;100.47;77.43;;;0.40;99.90;;;;;;5073296;28;20036;-71
2021/12/11 10:30:44;;;;;;;110.60;83.85;;;0.50;99.90;;;;;;5071025;28;20083;-71
2021/12/11 10:33:13;;;;;;;108.80;84.60;;;0.50;99.90;;;;;;5072246;28;20047;-71
2021/12/11 10:35:44;;;;;;;131.87;96.83;;;0.60;99.90;;;;;;5071442;28;20048;-71
2021/12/11 10:38:11;;;;;;;130.90;93.97;;;0.60;99.90;;;;;;5065538;28;20250;-72
2021/12/11 10:40:41;;;;;;;128.07;96.60;;;0.60;99.90;;;;;;5080388;28;20040;-71
2021/12/11 10:43:15;;;;;;;121.63;94.78;;;0.70;99.90;;;;;;5072932;28;20445;-71
2021/12/11 10:45:43;;;;;;;128.20;97.47;;;0.80;99.90;;;;;;5082585;28;20921;-71
2021/12/11 10:48:13;;;;;;;118.63;88.00;;;0.90;99.90;;;;;;5055602;28;20060;-72
2021/12/11 10:50:47;;;;;;;132.68;93.70;;;0.90;99.90;;;;;;5075528;28;20056;-72
2021/12/11 10:53:16;;;;;;;123.50;94.90;;;1.00;99.90;;;;;;5079971;28;20043;-72
2021/12/11 10:55:42;;;;;;;115.93;90.53;;;1.00;99.90;;;;;;5063024;28;20079;-72
2021/12/11 10:58:15;;;;;;;111.60;89.03;;;1.10;99.90;;;;;;5079477;28;20158;-72
2021/12/11 11:00:48;;;;;;;114.00;87.77;;;1.20;99.90;;;;;;5056887;28;20114;-74
2021/12/11 11:03:16;;;;;;;119.80;95.63;;;1.20;99.90;;;;;;5067031;28;20517;-74
2021/12/11 11:05:42;;;;;;;118.67;92.60;;;1.40;99.90;;;;;;5070581;28;20133;-74
2021/12/11 11:08:09;;;;;;;115.70;91.33;;;1.40;99.90;;;;;;5082643;28;20046;-75
2021/12/11 11:10:39;;;;;;;104.80;79.77;;;1.40;99.90;;;;;;5069433;28;20067;-72
2021/12/11 11:13:12;;;;;;;111.68;89.78;;;1.40;99.90;;;;;;5078442;28;20047;-72
2021/12/11 11:15:39;;;;;;;114.67;87.70;;;1.60;99.90;;;;;;5067217;28;20047;-72
2021/12/11 11:18:07;;;;;;;115.93;89.80;;;1.60;99.90;;;;;;5076059;28;20054;-72
2021/12/11 11:20:36;;;;;;;125.43;91.33;;;1.70;99.90;;;;;;5051973;28;20091;-72
2021/12/11 11:23:05;;;;;;;113.07;88.60;;;1.70;99.90;;;;;;5069327;28;20037;-72
2021/12/11 11:25:34;;;;;;;120.20;89.27;;;1.80;99.90;;;;;;5060803;28;20043;-72
2021/12/11 11:28:10;;;;;;;106.70;86.00;;;1.80;99.90;;;;;;5070309;28;20044;-72
2021/12/11 11:30:41;;;;;;;106.93;83.03;;;1.90;99.90;;;;;;5080754;28;20051;-72
2021/12/11 11:33:08;;;;;;;105.07;78.93;;;2.00;99.90;;;;;;5069044;28;20033;-72
2021/12/11 11:35:38;;;;;;;98.83;77.43;;;2.00;99.90;;;;;;5069588;28;20048;-72
2021/12/11 11:38:06;;;;;;;94.47;76.85;;;2.10;99.90;;;;;;5057697;28;20056;-72
2021/12/11 11:40:37;;;;;;;98.50;76.40;;;2.20;99.90;;;;;;5033390;28;20513;-72
2021/12/11 11:43:05;;;;;;;97.03;74.73;;;2.20;99.90;;;;;;5073966;28;20044;-72
2021/12/11 11:45:36;;;;;;;100.60;76.83;;;2.20;99.90;;;;;;5069618;28;20044;-72
2021/12/11 11:48:02;;;;;;;87.10;70.63;;;2.30;99.90;;;;;;5061107;28;20048;-72
2021/12/11 11:50:34;;;;;;;91.97;71.37;;;2.30;99.90;;;;;;5082570;28;20050;-72
2021/12/11 11:53:01;;;;;;;88.93;68.63;;;2.30;99.90;;;;;;5070179;28;20098;-73
2021/12/11 11:55:34;;;;;;;88.77;69.73;;;2.40;99.90;;;;;;5058731;28;20553;-72
2021/12/11 11:58:04;;;;;;;83.37;66.97;;;2.40;99.90;;;;;;5052312;28;20131;-73
2021/12/11 12:00:42;;;;;;;78.33;64.37;;;2.40;99.90;;;;;;5068507;28;20048;-72
2021/12/11 12:03:09;;;;;;;87.77;67.50;;;2.50;99.90;;;;;;5065806;28;20283;-72
2021/12/11 12:05:37;;;;;;;86.23;68.10;;;2.60;99.90;;;;;;5061330;28;20090;-72
2021/12/11 12:08:15;;;;;;;79.97;61.47;;;2.70;99.90;;;;;;5072603;27;20387;-71
2021/12/11 12:10:43;;;;;;;73.82;60.10;;;2.80;99.90;;;;;;5041173;28;20115;-71
2021/12/11 12:13:09;;;;;;;71.37;57.03;;;2.90;99.90;;;;;;5060635;28;20044;-71
2021/12/11 12:15:41;;;;;;;65.60;52.10;;;3.00;99.90;;;;;;5044222;28;20713;-71
2021/12/11 12:18:07;;;;;;;70.33;55.63;;;3.10;99.90;;;;;;5056117;28;20052;-71
2021/12/11 12:20:34;;;;;;;78.27;58.80;;;3.20;99.90;;;;;;5027823;28;20083;-71
2021/12/11 12:23:00;;;;;;;68.30;56.50;;;3.20;99.90;;;;;;5065162;28;20068;-71
2021/12/11 12:25:27;;;;;;;73.13;56.23;;;3.30;99.90;;;;;;5044638;28;20079;-71
2021/12/11 12:27:54;;;;;;;65.50;52.63;;;3.40;99.90;;;;;;5025300;28;20042;-72
2021/12/11 12:30:35;;;;;;;65.13;49.70;;;3.50;99.90;;;;;;5042204;28;20419;-73
2021/12/11 12:33:02;;;;;;;65.17;49.30;;;3.60;99.90;;;;;;5064019;28;20053;-72
2021/12/11 12:35:29;;;;;;;64.17;48.57;;;3.70;99.90;;;;;;5044585;28;20558;-72
2021/12/11 12:37:59;;;;;;;64.00;47.13;;;3.70;99.90;;;;;;5024528;28;20496;-72
2021/12/11 12:40:33;;;;;;;66.18;46.00;;;3.70;99.90;;;;;;5026349;28;20057;-72
2021/12/11 12:43:12;;;;;;;60.70;45.77;;;3.70;99.90;;;;;;5026270;28;20424;-72
2021/12/11 12:45:47;;;;;;;51.70;43.05;;;3.70;99.90;;;;;;5059790;28;20041;-72
2021/12/11 12:48:20;;;;;;;60.33;44.37;;;3.70;99.90;;;;;;5041593;28;20122;-72
2021/12/11 12:50:58;;;;;;;60.03;45.00;;;3.70;99.90;;;;;;5056932;28;20063;-76
2021/12/11 12:53:33;;;;;;;56.07;42.20;;;3.70;99.90;;;;;;5045296;28;20056;-75
2021/12/11 12:56:26;;;;;;;62.90;45.57;;;3.70;99.90;;;;;;5042529;28;20442;-72
2021/12/11 12:59:06;;;;;;;56.20;42.30;;;3.80;99.90;;;;;;5055888;28;20052;-72
2021/12/11 13:01:43;;;;;;;60.80;44.67;;;3.80;99.90;;;;;;5044553;28;20063;-72
2021/12/11 13:04:14;;;;;;;55.23;41.87;;;3.80;99.90;;;;;;5058685;28;20062;-72
2021/12/11 13:06:45;;;;;;;60.50;43.40;;;3.80;99.90;;;;;;5027536;28;20110;-72